To NAV CANADA Home Page Login to a new session Search on AWWS site Disclaimer Vers la page française équivalente Tips FAQ What's new on the site To the Forecasts and Observations / NOTAM section To "File a Flight Plan" website Publications and other links Update of the User's profile FIC Telephone Numbers My Weather Data Folder Route Weather Data Regional Weather Data Local Weather Data To the Forecasts and Observations / NOTAM section
Request Generated 10/19/2018 at 16:33:04 UTC . Weather information available at that time is displayed.

METAR/TAF

LLOYDMINSTER/AB    (show WxCam)

METAR CYLL 191600Z 28009G15KT 15SM FEW270 04/M02 A3024 RMK CI1 SLP266=
METAR CYLL 191500Z 27012KT 15SM FEW250 02/M02 A3023 RMK CI1 SLP266=
METAR CYLL 191400Z 26011KT 15SM FEW150 FEW250 M00/M03 A3022 RMK AC1CI1 AC TR SLP262=

TAF CYLL 191147Z 1912/1924 29008KT P6SM SKC
BECMG 1917/1919 30015KT
FM192100 32018KT P6SM FEW250
BECMG 1922/1924 34012KT
RMK FCST BASED ON AUTO OBS. NXT FCST BY 191800Z=
Your time UTC time
Weather data provided by Environment Canada and NAV CANADA